createdAt,value
2022-09-12T00:01:57.164Z,1.83
2022-09-12T00:04:29.760Z,1.77
2022-09-12T00:06:58.038Z,1.60
2022-09-12T00:09:31.619Z,1.80
2022-09-12T00:11:59.665Z,1.83
2022-09-12T00:14:27.665Z,1.60
2022-09-12T00:16:57.110Z,1.62
2022-09-12T00:19:24.990Z,1.60
2022-09-12T00:21:57.724Z,2.05
2022-09-12T00:24:32.915Z,1.80
2022-09-12T00:27:00.933Z,1.60
2022-09-12T00:29:29.373Z,1.80
2022-09-12T00:32:02.114Z,1.80
2022-09-12T00:34:30.160Z,1.60
2022-09-12T00:37:01.367Z,1.50
2022-09-12T00:39:35.139Z,1.65
2022-09-12T00:42:03.086Z,1.58
2022-09-12T00:44:30.923Z,1.60
2022-09-12T00:47:12.043Z,1.55
2022-09-12T00:50:06.624Z,1.50
2022-09-12T00:52:54.867Z,1.60
2022-09-12T00:55:28.361Z,1.60
2022-09-12T00:58:04.025Z,1.67
2022-09-12T01:00:35.056Z,1.52
2022-09-12T01:03:10.699Z,1.33
2022-09-12T01:05:40.443Z,1.50
2022-09-12T01:08:14.043Z,1.37
2022-09-12T01:10:42.108Z,1.50
2022-09-12T01:13:35.179Z,1.40
2022-09-12T01:16:04.933Z,1.52
2022-09-12T01:18:59.115Z,1.52
2022-09-12T01:21:37.809Z,2.17
2022-09-12T01:24:21.312Z,1.83
2022-09-12T01:27:48.933Z,1.70
2022-09-12T01:30:34.103Z,1.70
2022-09-12T01:33:13.683Z,1.95
2022-09-12T01:36:02.404Z,1.80
2022-09-12T01:38:48.419Z,1.90
2022-09-12T01:41:36.315Z,1.73
2022-09-12T01:44:23.928Z,1.67
2022-09-12T01:47:09.622Z,1.80
2022-09-12T01:49:41.925Z,2.42
2022-09-12T01:52:25.699Z,2.10
2022-09-12T01:55:06.473Z,1.83
2022-09-12T01:57:43.427Z,1.58
2022-09-12T02:00:14.246Z,1.70
2022-09-12T02:03:06.005Z,1.70
2022-09-12T02:05:39.086Z,1.73
2022-09-12T02:08:15.962Z,2.05
2022-09-12T02:10:50.976Z,2.67
2022-09-12T02:13:23.052Z,2.25
2022-09-12T02:15:57.660Z,2.08
2022-09-12T02:18:26.725Z,2.17
2022-09-12T02:20:59.073Z,2.05
2022-09-12T02:23:33.236Z,2.00
2022-09-12T02:26:25.325Z,1.90
2022-09-12T02:29:01.060Z,1.90
2022-09-12T02:31:53.418Z,1.98
2022-09-12T02:34:30.337Z,2.60
2022-09-12T02:37:33.778Z,3.42
2022-09-12T02:40:02.191Z,2.20
2022-09-12T02:42:35.091Z,2.50
2022-09-12T02:45:07.529Z,2.10
2022-09-12T02:47:40.259Z,2.20
2022-09-12T02:50:13.518Z,1.80
2022-09-12T02:52:46.324Z,2.20
2022-09-12T02:55:14.396Z,2.20
2022-09-12T02:57:44.997Z,1.90
2022-09-12T03:00:16.586Z,2.12
2022-09-12T03:02:49.127Z,2.50
2022-09-12T03:05:40.804Z,1.90
2022-09-12T03:08:37.137Z,2.05
2022-09-12T03:11:22.548Z,2.30
2022-09-12T03:14:06.147Z,2.55
2022-09-12T03:16:48.652Z,1.90
2022-09-12T03:19:53.339Z,2.05
2022-09-12T03:22:27.560Z,2.00
2022-09-12T03:25:02.273Z,1.80
2022-09-12T03:27:36.545Z,1.73
2022-09-12T03:30:12.233Z,1.83
2022-09-12T03:32:51.383Z,2.10
2022-09-12T03:35:23.052Z,1.90
2022-09-12T03:38:03.370Z,1.80
2022-09-12T03:40:31.201Z,1.90
2022-09-12T03:43:03.622Z,2.00
2022-09-12T03:45:34.818Z,1.70
2022-09-12T03:48:03.067Z,1.90
2022-09-12T03:50:35.752Z,1.70
2022-09-12T03:53:04.377Z,1.90
2022-09-12T03:55:32.364Z,2.05
2022-09-12T03:58:06.009Z,2.30
2022-09-12T04:00:38.620Z,2.62
2022-09-12T04:03:06.429Z,2.13
2022-09-12T04:05:38.915Z,1.92
2022-09-12T04:08:06.875Z,1.93
2022-09-12T04:10:34.719Z,2.25
2022-09-12T04:13:02.521Z,2.20
2022-09-12T04:15:34.939Z,1.93
2022-09-12T04:18:06.001Z,2.00
2022-09-12T04:20:34.140Z,1.98
2022-09-12T04:23:13.883Z,2.05
2022-09-12T04:25:41.664Z,2.20
2022-09-12T04:28:13.475Z,2.40
2022-09-12T04:30:41.399Z,2.25
2022-09-12T04:33:17.085Z,2.70
2022-09-12T04:35:46.924Z,3.17
2022-09-12T04:38:19.345Z,3.10
2022-09-12T04:40:51.888Z,3.08
2022-09-12T04:43:24.396Z,3.60
2022-09-12T04:45:53.165Z,4.00
2022-09-12T04:48:26.833Z,3.78
2022-09-12T04:50:54.706Z,4.27
2022-09-12T04:53:22.650Z,4.77
2022-09-12T04:55:50.585Z,4.57
2022-09-12T04:58:30.745Z,4.70
2022-09-12T05:01:11.825Z,4.70
2022-09-12T05:03:44.638Z,4.90
2022-09-12T05:06:25.181Z,4.78
2022-09-12T05:08:59.739Z,5.10
2022-09-12T05:11:59.702Z,5.23
2022-09-12T05:14:24.591Z,4.53
2022-09-12T05:16:52.650Z,4.70
2022-09-12T05:19:20.681Z,5.33
2022-09-12T05:21:48.533Z,4.90
2022-09-12T05:24:16.597Z,5.27
2022-09-12T05:26:44.476Z,5.00
2022-09-12T05:29:12.767Z,4.80
2022-09-12T05:31:40.752Z,5.50
2022-09-12T05:34:11.424Z,5.73
2022-09-12T05:36:42.069Z,5.22
2022-09-12T05:39:17.736Z,6.25
2022-09-12T05:41:45.859Z,5.43
2022-09-12T05:44:19.035Z,6.22
2022-09-12T05:46:51.482Z,5.43
2022-09-12T05:49:24.467Z,6.75
2022-09-12T05:51:52.824Z,6.53
2022-09-12T05:54:34.636Z,5.83
2022-09-12T05:57:07.273Z,5.85
2022-09-12T05:59:45.289Z,5.60
2022-09-12T06:02:18.572Z,5.40
2022-09-12T06:04:57.159Z,5.18
2022-09-12T06:07:50.206Z,5.35
2022-09-12T06:10:20.572Z,4.80
2022-09-12T06:12:48.953Z,4.47
2022-09-12T06:15:19.583Z,5.30
2022-09-12T06:17:51.469Z,4.45
2022-09-12T06:20:33.571Z,4.55
2022-09-12T06:23:06.345Z,4.87
2022-09-12T06:25:38.900Z,5.18
2022-09-12T06:28:11.414Z,5.32
2022-09-12T06:30:44.029Z,4.80
2022-09-12T06:33:26.515Z,4.53
2022-09-12T06:35:54.720Z,4.50
2022-09-12T06:39:00.908Z,3.97
2022-09-12T06:41:35.408Z,3.72
2022-09-12T06:44:09.108Z,3.70
2022-09-12T06:46:50.983Z,3.55
2022-09-12T06:49:25.201Z,3.95
2022-09-12T06:51:58.891Z,4.15
2022-09-12T06:54:28.444Z,4.28
2022-09-12T06:56:56.348Z,4.10
2022-09-12T06:59:33.423Z,3.80
2022-09-12T07:02:04.677Z,3.92
2022-09-12T07:04:34.783Z,3.75
2022-09-12T07:07:02.647Z,3.60
2022-09-12T07:09:35.098Z,4.20
2022-09-12T07:12:07.987Z,4.10
2022-09-12T07:14:35.877Z,4.30
2022-09-12T07:17:03.772Z,3.65
2022-09-12T07:19:31.696Z,3.67
2022-09-12T07:22:11.879Z,4.07
2022-09-12T07:24:41.313Z,3.67
2022-09-12T07:27:16.162Z,3.67
2022-09-12T07:29:48.712Z,3.80
2022-09-12T07:32:22.193Z,3.50
2022-09-12T07:34:51.131Z,3.05
2022-09-12T07:37:22.139Z,2.65
2022-09-12T07:39:54.909Z,2.35
2022-09-12T07:42:23.045Z,2.53
2022-09-12T07:44:52.050Z,2.55
2022-09-12T07:47:25.667Z,2.10
2022-09-12T07:49:54.312Z,2.53
2022-09-12T07:52:22.236Z,2.30
2022-09-12T07:54:50.305Z,2.55
2022-09-12T07:57:22.916Z,2.40
2022-09-12T07:59:53.480Z,2.40
2022-09-12T08:02:28.345Z,2.05
2022-09-12T08:05:01.355Z,2.12
2022-09-12T08:07:29.474Z,2.42
2022-09-12T08:10:02.561Z,2.35
2022-09-12T08:12:37.880Z,2.08
2022-09-12T08:15:12.590Z,1.62
2022-09-12T08:17:40.812Z,1.40
2022-09-12T08:20:13.307Z,1.42
2022-09-12T08:22:41.865Z,1.37
2022-09-12T08:25:10.218Z,2.50
2022-09-12T08:27:38.863Z,2.20
2022-09-12T08:30:15.035Z,1.35
2022-09-12T08:32:48.403Z,1.87
2022-09-12T08:35:27.133Z,1.70
2022-09-12T08:37:55.274Z,1.60
2022-09-12T08:40:23.081Z,1.40
2022-09-12T08:43:06.866Z,1.40
2022-09-12T08:46:01.327Z,1.30
2022-09-12T08:48:29.207Z,1.20
2022-09-12T08:51:02.117Z,1.17
2022-09-12T08:53:29.974Z,1.50
2022-09-12T08:56:00.415Z,1.30
2022-09-12T08:58:29.428Z,1.23
2022-09-12T09:01:00.688Z,1.65
2022-09-12T09:03:40.258Z,1.75
2022-09-12T09:06:32.888Z,1.52
2022-09-12T09:09:18.499Z,1.20
2022-09-12T09:11:58.343Z,1.70
2022-09-12T09:14:50.045Z,1.30
2022-09-12T09:17:43.859Z,1.45
2022-09-12T09:20:43.193Z,1.17
2022-09-12T09:23:25.389Z,1.30
2022-09-12T09:26:15.858Z,1.20
2022-09-12T09:28:49.565Z,1.35
2022-09-12T09:31:23.579Z,1.33
2022-09-12T09:33:52.908Z,1.48
2022-09-12T09:36:39.625Z,1.08
2022-09-12T09:39:32.554Z,1.23
2022-09-12T09:42:50.025Z,1.40
2022-09-12T09:45:30.957Z,1.30
2022-09-12T09:48:05.490Z,1.17
2022-09-12T09:50:34.849Z,1.15
2022-09-12T09:53:03.649Z,1.33
2022-09-12T09:55:40.369Z,1.23
2022-09-12T09:58:33.530Z,1.05
2022-09-12T10:01:07.995Z,1.35
2022-09-12T10:03:42.886Z,1.23
2022-09-12T10:06:38.259Z,1.33
2022-09-12T10:09:24.959Z,0.95
2022-09-12T10:12:18.279Z,1.17
2022-09-12T10:15:17.213Z,1.10
2022-09-12T10:17:47.514Z,1.50
2022-09-12T10:20:40.860Z,1.02
2022-09-12T10:23:24.795Z,1.20
2022-09-12T10:25:57.811Z,1.10
2022-09-12T10:29:16.610Z,0.95
2022-09-12T10:31:47.458Z,1.20
2022-09-12T10:34:38.095Z,1.15
2022-09-12T10:37:11.266Z,0.90
2022-09-12T10:39:39.748Z,1.10
2022-09-12T10:42:07.756Z,1.10
2022-09-12T10:44:36.370Z,1.40
2022-09-12T10:47:24.046Z,0.95
2022-09-12T10:49:55.397Z,1.00
2022-09-12T10:52:24.968Z,1.20
2022-09-12T10:54:53.388Z,1.15
2022-09-12T10:57:36.715Z,1.10
2022-09-12T11:00:17.045Z,1.10
2022-09-12T11:03:06.360Z,1.17
2022-09-12T11:06:02.637Z,1.08
2022-09-12T11:09:00.637Z,1.00
2022-09-12T11:11:42.308Z,1.02
2022-09-12T11:14:34.884Z,0.98
2022-09-12T11:17:53.135Z,1.00
2022-09-12T11:20:33.189Z,1.05
2022-09-12T11:23:13.168Z,1.12
2022-09-12T11:26:01.898Z,1.15
2022-09-12T11:28:51.051Z,1.08
2022-09-12T11:31:36.880Z,1.20
2022-09-12T11:34:10.752Z,0.95
2022-09-12T11:36:45.390Z,1.02
2022-09-12T11:39:37.975Z,1.00
2022-09-12T11:42:13.344Z,1.23
2022-09-12T11:44:44.094Z,1.20
2022-09-12T11:47:13.912Z,1.20
2022-09-12T11:49:49.990Z,1.10
2022-09-12T11:52:23.584Z,0.90
2022-09-12T11:55:06.288Z,1.00
2022-09-12T11:57:56.985Z,0.90
2022-09-12T12:00:46.345Z,1.12
2022-09-12T12:03:39.196Z,1.10
2022-09-12T12:06:43.889Z,0.80
2022-09-12T12:09:12.442Z,0.90
2022-09-12T12:11:47.315Z,1.10
2022-09-12T12:14:40.300Z,0.90
2022-09-12T12:17:34.692Z,1.00
2022-09-12T12:20:08.872Z,0.95
2022-09-12T12:22:39.166Z,0.85
2022-09-12T12:25:20.844Z,0.90
2022-09-12T12:28:02.745Z,0.95
2022-09-12T12:30:58.535Z,0.95
2022-09-12T12:33:32.109Z,1.00
2022-09-12T12:36:00.754Z,0.88
2022-09-12T12:38:56.421Z,0.93
2022-09-12T12:41:30.159Z,0.80
2022-09-12T12:44:00.525Z,0.80
2022-09-12T12:46:31.577Z,0.70
2022-09-12T12:49:30.196Z,0.62
2022-09-12T12:52:02.785Z,0.60
2022-09-12T12:54:35.411Z,0.90
2022-09-12T12:57:35.877Z,0.88
2022-09-12T13:00:32.683Z,0.75
2022-09-12T13:03:08.739Z,0.75
2022-09-12T13:06:13.574Z,0.93
2022-09-12T13:09:08.142Z,0.80
2022-09-12T13:11:42.803Z,0.70
2022-09-12T13:14:45.066Z,0.98
2022-09-12T13:17:34.870Z,0.85
2022-09-12T13:20:28.451Z,0.90
2022-09-12T13:22:58.244Z,1.00
2022-09-12T13:25:28.016Z,0.98
2022-09-12T13:28:36.105Z,0.70
2022-09-12T13:31:26.364Z,0.70
2022-09-12T13:34:00.891Z,0.80
2022-09-12T13:37:06.142Z,0.80
2022-09-12T13:39:51.013Z,0.57
2022-09-12T13:42:31.958Z,0.80
2022-09-12T13:45:05.117Z,0.70
2022-09-12T13:47:38.595Z,0.50
2022-09-12T13:50:26.809Z,0.60
2022-09-12T13:53:08.621Z,0.68
2022-09-12T13:55:38.970Z,0.50
2022-09-12T13:58:39.703Z,0.40
2022-09-12T14:01:14.377Z,0.50
2022-09-12T14:04:22.845Z,0.60
2022-09-12T14:06:53.145Z,0.50
2022-09-12T14:09:56.473Z,0.60
2022-09-12T14:13:01.752Z,0.60
2022-09-12T14:15:34.971Z,0.60
2022-09-12T14:18:04.554Z,0.60
2022-09-12T14:20:40.115Z,0.60
2022-09-12T14:23:32.648Z,0.40
2022-09-12T14:26:08.071Z,0.57
2022-09-12T14:28:42.061Z,0.70
2022-09-12T14:31:46.265Z,0.40
2022-09-12T14:34:16.239Z,0.60
2022-09-12T14:36:49.322Z,0.60
2022-09-12T14:39:42.615Z,0.62
2022-09-12T14:42:28.587Z,0.52
2022-09-12T14:45:18.538Z,0.60
2022-09-12T14:47:54.136Z,0.70
2022-09-12T14:50:27.537Z,0.70
2022-09-12T14:53:27.328Z,0.50
2022-09-12T14:56:00.350Z,0.50
2022-09-12T14:58:32.962Z,0.47
2022-09-12T15:01:03.012Z,0.70
2022-09-12T15:03:48.733Z,0.82
2022-09-12T15:06:30.577Z,0.70
2022-09-12T15:09:00.909Z,0.60
2022-09-12T15:11:28.760Z,0.50
2022-09-12T15:13:56.763Z,0.70
2022-09-12T15:16:30.357Z,0.60
2022-09-12T15:19:03.238Z,0.70
2022-09-12T15:21:46.821Z,0.80
2022-09-12T15:24:14.891Z,0.85
2022-09-12T15:26:47.622Z,0.93
2022-09-12T15:29:20.729Z,0.62
2022-09-12T15:31:53.556Z,0.70
2022-09-12T15:34:21.542Z,0.68
2022-09-12T15:36:54.393Z,0.73
2022-09-12T15:39:22.267Z,0.70
2022-09-12T15:41:50.686Z,0.52
2022-09-12T15:44:18.453Z,0.60
2022-09-12T15:46:49.451Z,0.77
2022-09-12T15:49:21.886Z,0.70
2022-09-12T15:51:54.407Z,0.82
2022-09-12T15:54:27.195Z,1.08
2022-09-12T15:56:55.251Z,0.75
2022-09-12T15:59:50.733Z,0.90
2022-09-12T16:02:23.277Z,0.80
2022-09-12T16:04:55.766Z,0.68
2022-09-12T16:07:23.872Z,0.80
2022-09-12T16:09:56.700Z,0.60
2022-09-12T16:12:29.671Z,0.88
2022-09-12T16:15:02.092Z,0.80
2022-09-12T16:17:34.668Z,0.90
2022-09-12T16:20:07.286Z,1.00
2022-09-12T16:22:35.186Z,0.88
2022-09-12T16:25:09.250Z,0.70
2022-09-12T16:28:02.151Z,1.25
2022-09-12T16:30:30.032Z,0.88
2022-09-12T16:32:57.867Z,0.90
2022-09-12T16:35:25.686Z,0.98
2022-09-12T16:38:02.943Z,0.80
2022-09-12T16:40:31.568Z,1.02
2022-09-12T16:43:04.269Z,1.10
2022-09-12T16:45:37.198Z,0.82
2022-09-12T16:48:05.059Z,0.95
2022-09-12T16:50:36.154Z,1.08
2022-09-12T16:53:04.208Z,0.80
2022-09-12T16:55:34.787Z,0.90
2022-09-12T16:58:02.703Z,0.90
2022-09-12T17:00:35.172Z,1.10
2022-09-12T17:03:03.169Z,1.50
2022-09-12T17:05:36.001Z,1.20
2022-09-12T17:08:04.165Z,1.05
2022-09-12T17:10:39.660Z,1.30
2022-09-12T17:13:10.573Z,1.20
2022-09-12T17:15:43.071Z,1.10
2022-09-12T17:18:17.163Z,1.27
2022-09-12T17:21:09.958Z,1.80
2022-09-12T17:23:38.270Z,1.52
2022-09-12T17:26:20.168Z,1.45
2022-09-12T17:28:48.268Z,1.40
2022-09-12T17:31:20.949Z,1.60
2022-09-12T17:33:48.937Z,1.37
2022-09-12T17:36:22.989Z,1.52
2022-09-12T17:38:56.650Z,1.42
2022-09-12T17:41:32.239Z,1.30
2022-09-12T17:44:05.156Z,1.60
2022-09-12T17:46:39.258Z,1.77
2022-09-12T17:49:13.242Z,1.70
2022-09-12T17:51:41.565Z,1.95
2022-09-12T17:54:17.496Z,1.70
2022-09-12T17:56:46.617Z,1.80
2022-09-12T17:59:21.470Z,1.73
2022-09-12T18:02:07.699Z,2.00
2022-09-12T18:04:41.816Z,1.83
2022-09-12T18:07:09.732Z,2.25
2022-09-12T18:09:39.626Z,2.03
2022-09-12T18:12:07.976Z,1.70
2022-09-12T18:14:47.779Z,2.28
2022-09-12T18:17:20.409Z,1.87
2022-09-12T18:19:53.839Z,2.22
2022-09-12T18:22:22.008Z,2.20
2022-09-12T18:24:55.047Z,1.90
2022-09-12T18:27:27.478Z,2.45
2022-09-12T18:30:20.655Z,2.40
2022-09-12T18:32:54.852Z,1.90
2022-09-12T18:35:35.033Z,2.17
2022-09-12T18:38:08.060Z,2.30
2022-09-12T18:41:02.431Z,2.30
2022-09-12T18:43:30.705Z,2.30
2022-09-12T18:45:58.799Z,2.20
2022-09-12T18:48:30.841Z,2.72
2022-09-12T18:51:12.607Z,2.67
2022-09-12T18:53:46.302Z,2.60
2022-09-12T18:56:19.947Z,2.25
2022-09-12T18:59:01.029Z,2.55
2022-09-12T19:01:33.835Z,2.60
2022-09-12T19:04:11.088Z,2.53
2022-09-12T19:06:43.442Z,2.67
2022-09-12T19:09:25.677Z,2.70
2022-09-12T19:11:56.888Z,2.50
2022-09-12T19:14:25.092Z,2.20
2022-09-12T19:16:53.399Z,2.80
2022-09-12T19:19:24.892Z,2.58
2022-09-12T19:22:00.698Z,3.12
2022-09-12T19:24:41.316Z,3.35
2022-09-12T19:27:15.210Z,2.28
2022-09-12T19:29:56.958Z,2.65
2022-09-12T19:32:30.485Z,2.75
2022-09-12T19:34:59.442Z,2.95
2022-09-12T19:37:27.308Z,3.10
2022-09-12T19:39:55.899Z,2.95
2022-09-12T19:42:43.914Z,3.10
2022-09-12T19:45:24.174Z,2.78
2022-09-12T19:47:52.163Z,3.08
2022-09-12T19:50:24.961Z,2.95
2022-09-12T19:52:57.610Z,2.78
2022-09-12T19:55:26.846Z,3.20
2022-09-12T19:58:17.532Z,2.83
2022-09-12T20:00:49.157Z,2.78
2022-09-12T20:03:22.641Z,3.03
2022-09-12T20:05:55.524Z,3.00
2022-09-12T20:08:28.215Z,3.22
2022-09-12T20:11:10.514Z,3.42
2022-09-12T20:13:38.290Z,3.53
2022-09-12T20:16:23.081Z,3.65
2022-09-12T20:19:13.426Z,3.55
2022-09-12T20:21:44.236Z,4.25
2022-09-12T20:24:17.223Z,3.58
2022-09-12T20:26:45.072Z,3.55
2022-09-12T20:29:15.621Z,3.40
2022-09-12T20:31:43.510Z,3.28
2022-09-12T20:34:22.235Z,3.40
2022-09-12T20:36:50.063Z,3.33
2022-09-12T20:39:22.391Z,4.15
2022-09-12T20:41:50.360Z,2.85
2022-09-12T20:44:18.352Z,2.97
2022-09-12T20:46:46.264Z,2.80
2022-09-12T20:49:14.258Z,2.87
2022-09-12T20:51:42.062Z,2.67
2022-09-12T20:54:10.761Z,2.90
2022-09-12T20:56:38.744Z,2.60
2022-09-12T20:59:06.792Z,3.00
2022-09-12T21:01:34.753Z,2.50
2022-09-12T21:04:03.017Z,2.50
2022-09-12T21:06:30.845Z,2.12
2022-09-12T21:09:01.667Z,1.62
2022-09-12T21:11:29.679Z,1.70
2022-09-12T21:13:57.790Z,1.73
2022-09-12T21:16:25.774Z,2.15
2022-09-12T21:18:55.203Z,2.10
2022-09-12T21:21:23.008Z,2.00
2022-09-12T21:23:52.118Z,1.67
2022-09-12T21:26:19.935Z,2.25
2022-09-12T21:28:47.685Z,2.17
2022-09-12T21:31:15.633Z,2.53
2022-09-12T21:33:43.451Z,1.95
2022-09-12T21:36:11.553Z,1.92
2022-09-12T21:38:39.390Z,1.98
2022-09-12T21:41:11.773Z,2.60
2022-09-12T21:43:40.043Z,2.70
2022-09-12T21:46:08.027Z,3.40
2022-09-12T21:48:35.910Z,3.28
2022-09-12T21:51:03.751Z,3.50
2022-09-12T21:53:32.173Z,3.45
2022-09-12T21:56:04.593Z,4.20
2022-09-12T21:58:32.531Z,3.85
2022-09-12T22:01:01.614Z,3.70
2022-09-12T22:03:29.913Z,3.83
2022-09-12T22:06:02.778Z,3.65
2022-09-12T22:08:31.135Z,3.33
2022-09-12T22:11:03.233Z,3.15
2022-09-12T22:13:34.819Z,3.25
2022-09-12T22:16:04.062Z,2.95
2022-09-12T22:18:34.941Z,3.03
2022-09-12T22:21:06.049Z,3.22
2022-09-12T22:23:52.531Z,3.33
2022-09-12T22:26:20.290Z,2.95
2022-09-12T22:28:48.673Z,2.58
2022-09-12T22:31:16.792Z,2.28
2022-09-12T22:33:44.748Z,2.00
2022-09-12T22:36:17.237Z,1.92
2022-09-12T22:38:45.148Z,1.67
2022-09-12T22:41:12.999Z,1.70
2022-09-12T22:43:40.880Z,1.40
2022-09-12T22:46:13.178Z,1.20
2022-09-12T22:48:41.625Z,1.37
2022-09-12T22:51:09.565Z,1.20
2022-09-12T22:53:38.802Z,1.10
2022-09-12T22:56:06.710Z,1.40
2022-09-12T22:58:35.355Z,1.30
2022-09-12T23:01:03.154Z,1.15
2022-09-12T23:03:31.045Z,1.15
2022-09-12T23:05:58.922Z,1.62
2022-09-12T23:08:30.606Z,1.30
2022-09-12T23:11:05.875Z,1.50
2022-09-12T23:13:34.094Z,1.40
2022-09-12T23:16:02.329Z,1.20
2022-09-12T23:18:30.155Z,1.20
2022-09-12T23:21:01.591Z,1.37
2022-09-12T23:23:29.696Z,1.23
2022-09-12T23:26:14.090Z,1.20
2022-09-12T23:28:42.706Z,1.27
2022-09-12T23:31:10.927Z,1.40
2022-09-12T23:33:38.919Z,1.23
2022-09-12T23:36:08.630Z,1.30
2022-09-12T23:38:36.616Z,1.20
2022-09-12T23:41:04.729Z,1.20
2022-09-12T23:43:32.711Z,1.25
2022-09-12T23:46:00.615Z,1.45
2022-09-12T23:48:28.485Z,1.20
2022-09-12T23:50:56.366Z,1.10
2022-09-12T23:53:24.313Z,1.20
2022-09-12T23:55:52.303Z,1.33
2022-09-12T23:58:20.140Z,1.30
